»·PEaware :: N171CP L88-KSBP

N171CP :: L88-KSBP

FLIGHT INFORMATION

Flight Status: Arrived
Operator: Privately registered:
United States
More flights under this callsign
Pilot: Dwight D. (26772)
Aircraft: CESSNA 172 SKYHAWK
(C172)
More flights by this aircraft type
Origin: L88 New Cuyama
United States
Destination: KSBP San Luis Co Regl
United States
More flights between these airports :: More routes between these airports
Route:
File this flight plan on PilotEdge
Remarks:
Altitude:
(Current/Filed)
5,500ft
Speed:
(Current/Filed)
110kts
Departed: 29-Nov-19 06:14 PM
Arrived: 29-Nov-19 06:48 PM
Distance/Time
Traveled:
50nm/0:34
Distance/Time
To Go:
Arrived

Flight Plot

Page will automatically refresh every two minutes.


Map Options




Map Legend


Flown Route
Filed Route
Departure Airport
Arrival Airport
Navaid (VOR, NDB)
Fix

Horizontal Profiles

Position Reports

Time Latitude Longitude Heading Altitude Ground
Speed
29-Nov-19 17:57 34.935271 -119.682701 295 2206ft 0kts
29-Nov-19 17:58 34.935271 -119.682701 295 2206ft 0kts
29-Nov-19 17:59 34.935271 -119.682702 295 2206ft 0kts
29-Nov-19 18:00 34.935271 -119.682702 295 2206ft 0kts
29-Nov-19 18:01 34.935272 -119.682702 295 2206ft 0kts
29-Nov-19 18:02 34.935272 -119.682703 295 2206ft 0kts
29-Nov-19 18:03 34.935272 -119.682704 295 2206ft 0kts
29-Nov-19 18:04 34.935272 -119.682704 295 2206ft 0kts
29-Nov-19 18:05 34.935272 -119.682704 295 2206ft 0kts
29-Nov-19 18:06 34.935273 -119.682705 295 2206ft 0kts
29-Nov-19 18:07 34.935269 -119.682697 295 2203ft 0kts
29-Nov-19 18:08 34.935270 -119.682698 295 2206ft 0kts
29-Nov-19 18:09 34.935270 -119.682698 295 2206ft 0kts
29-Nov-19 18:10 34.935270 -119.682698 295 2206ft 0kts
29-Nov-19 18:11 34.935270 -119.682698 295 2206ft 0kts
29-Nov-19 18:12 34.935270 -119.682698 295 2206ft 0kts
29-Nov-19 18:13 34.939189 -119.693021 294 2337ft 80kts
29-Nov-19 18:15 34.949329 -119.724045 287 2642ft 97kts
29-Nov-19 18:16 34.957701 -119.752901 293 3301ft 85kts
29-Nov-19 18:17 34.966004 -119.779037 293 3982ft 79kts
29-Nov-19 18:18 34.973758 -119.803394 292 4668ft 73kts
29-Nov-19 18:19 34.980761 -119.825407 290 5330ft 67kts
29-Nov-19 18:20 34.988415 -119.849526 290 5537ft 96kts
29-Nov-19 18:21 34.997984 -119.881172 281 5499ft 100kts
29-Nov-19 18:22 35.007714 -119.911099 291 5500ft 99kts
29-Nov-19 18:23 35.017663 -119.941745 290 5499ft 99kts
29-Nov-19 18:24 35.027632 -119.973209 290 5500ft 99kts
29-Nov-19 18:25 35.037312 -120.003820 290 5500ft 99kts
29-Nov-19 18:26 35.047456 -120.035937 290 5500ft 99kts
29-Nov-19 18:27 35.057448 -120.067605 290 5500ft 99kts
29-Nov-19 18:28 35.067360 -120.099052 290 5500ft 99kts
29-Nov-19 18:29 35.077342 -120.130759 290 5500ft 99kts
29-Nov-19 18:30 35.087247 -120.162249 290 5500ft 99kts
29-Nov-19 18:31 35.096765 -120.192543 290 5501ft 99kts
29-Nov-19 18:32 35.106886 -120.224792 290 5500ft 99kts
29-Nov-19 18:33 35.116778 -120.256345 290 5500ft 99kts
29-Nov-19 18:34 35.126694 -120.288007 290 5500ft 99kts
29-Nov-19 18:34 35.134981 -120.314495 290 5500ft 99kts
29-Nov-19 18:36 35.146895 -120.352642 290 5326ft 103kts
29-Nov-19 18:36 35.155657 -120.380700 290 5169ft 105kts
29-Nov-19 18:37 35.166273 -120.414740 291 4982ft 107kts
29-Nov-19 18:39 35.178529 -120.454116 291 4811ft 107kts
29-Nov-19 18:39 35.185507 -120.482935 268 4711ft 109kts
29-Nov-19 18:40 35.188177 -120.512395 279 4419ft 81kts
29-Nov-19 18:42 35.192527 -120.547541 285 3747ft 83kts
29-Nov-19 18:42 35.197182 -120.568507 293 3427ft 70kts
29-Nov-19 18:43 35.203353 -120.586466 296 2668ft 59kts
29-Nov-19 18:44 35.211176 -120.603466 306 1933ft 55kts
29-Nov-19 18:45 35.220584 -120.617227 309 1058ft 56kts
29-Nov-19 18:46 35.231008 -120.631840 310 402ft 51kts
29-Nov-19 18:47 35.235010 -120.637035 301 215ft 6kts
29-Nov-19 18:48 35.237393 -120.643352 280 215ft 0kts
29-Nov-19 18:49 35.237393 -120.643352 280 215ft 0kts
29-Nov-19 18:50 35.237443 -120.644750 303 215ft 18kts
29-Nov-19 18:51 35.238116 -120.644800 62 215ft 0kts
29-Nov-19 18:52 35.238071 -120.644083 261 215ft 0kts
29-Nov-19 18:53 35.238418 -120.644920 244 215ft 0kts
29-Nov-19 18:54 35.238417 -120.644921 244 215ft 0kts
29-Nov-19 18:55 35.238417 -120.644921 244 215ft 0kts

Navigation Log

Ident Type
Flight plan parsing failed, navigation log unavailable